Time;durP1;ratioP1;P1;durP2;ratioP2;P2;SDS_P1;SDS_P2;PMS_P1;PMS_P2;Temp;Humidity;BMP_temperature;BMP_pressure;BME280_temperature;BME280_humidity;BME280_pressure;Samples;Min_cycle;Max_cycle;Signal;HPM_P1;HPM_P2
2023/05/09 00:00:22;;;;;;;;;;;;;;;;;;5010557;28;19965;-61
2023/05/09 00:02:48;;;;;;;;;;;;;;;;;;4993968;28;20310;-62
2023/05/09 00:05:13;;;;;;;;;;;;;;;;;;5011941;28;20485;-62
2023/05/09 00:07:39;;;;;;;;;;;;;;;;;;5011779;28;19956;-62
2023/05/09 00:10:04;;;;;;;;;;;;;;;;;;5011744;28;19922;-61
2023/05/09 00:12:29;;;;;;;;;;;;;;;;;;5012285;28;20012;-62
2023/05/09 00:14:56;;;;;;;;;;;;;;;;;;5011870;28;19943;-63
2023/05/09 00:17:22;;;;;;;;;;;;;;;;;;5011573;28;19921;-62
2023/05/09 00:19:48;;;;;;;;;;;;;;;;;;5011709;28;19928;-63
2023/05/09 00:22:14;;;;;;;;;;;;;;;;;;5011510;28;19914;-63
2023/05/09 00:24:39;;;;;;;;;;;;;;;;;;5011041;28;20207;-63
2023/05/09 00:27:04;;;;;;;;;;;;;;;;;;5011555;28;20421;-61
2023/05/09 00:29:30;;;;;;;;;;;;;;;;;;5011866;28;19918;-65
2023/05/09 00:31:55;;;;;;;;;;;;;;;;;;5011525;28;20036;-63
2023/05/09 00:34:20;;;;;;;;;;;;;;;;;;4994184;28;19928;-63
2023/05/09 00:36:46;;;;;;;;;;;;;;;;;;4993737;28;19929;-63
2023/05/09 00:39:12;;;;;;;;;;;;;;;;;;5011991;28;20371;-63
2023/05/09 00:41:37;;;;;;;;;;;;;;;;;;5011685;28;19967;-62
2023/05/09 00:44:02;;;;;;;;;;;;;;;;;;5011920;28;19991;-64
2023/05/09 00:46:28;;;;;;;;;;;;;;;;;;4993480;28;20315;-62
2023/05/09 00:48:53;;;;;;;;;;;;;;;;;;5011764;28;20403;-62
2023/05/09 00:51:18;;;;;;;;;;;;;;;;;;4994060;28;20421;-64
2023/05/09 00:53:44;;;;;;;;;;;;;;;;;;5010114;28;20391;-63
2023/05/09 00:56:09;;;;;;;;;;;;;;;;;;5011446;28;19921;-63
2023/05/09 00:58:34;;;;;;;;;;;;;;;;;;5015317;28;20004;-63
2023/05/09 01:01:01;;;;;;;;;;;;;;;;;;5013961;28;19945;-62
2023/05/09 01:03:26;;;;;;;;;;;;;;;;;;4981255;28;20434;-63
2023/05/09 01:05:51;;;;;;;;;;;;;;;;;;4980909;28;19965;-63
2023/05/09 01:08:17;;;;;;;;;;;;;;;;;;5014840;28;20028;-61
2023/05/09 01:10:42;;;;;;;;;;;;;;;;;;5014970;28;19917;-62
2023/05/09 01:13:07;;;;;;;;;;;;;;;;;;4996919;28;20329;-62
2023/05/09 01:15:33;;;;;;;;;;;;;;;;;;5013949;28;19957;-61
2023/05/09 01:17:58;;;;;;;;;;;;;;;;;;4997235;28;19956;-62
2023/05/09 01:20:24;;;;;;;;;;;;;;;;;;4996977;28;19918;-60
2023/05/09 01:22:49;;;;;;;;;;;;;;;;;;5014346;28;20303;-62
2023/05/09 01:25:14;;;;;;;;;;;;;;;;;;4996706;28;20415;-62
2023/05/09 01:27:44;;;;;;;;;;;;;;;;;;5014447;28;20338;-62
2023/05/09 01:30:09;;;;;;;;;;;;;;;;;;5014474;28;19921;-62
2023/05/09 01:32:35;;;;;;;;;;;;;;;;;;5014447;28;20506;-62
2023/05/09 01:35:00;;;;;;;;;;;;;;;;;;5014191;28;20441;-62
2023/05/09 01:37:25;;;;;;;;;;;;;;;;;;4996602;28;19926;-64
2023/05/09 01:39:51;;;;;;;;;;;;;;;;;;5014496;28;19979;-63
2023/05/09 01:42:16;;;;;;;;;;;;;;;;;;5014093;28;20284;-62
2023/05/09 01:44:41;;;;;;;;;;;;;;;;;;4996570;28;19921;-62
2023/05/09 01:47:07;;;;;;;;;;;;;;;;;;4996250;28;20299;-63
2023/05/09 01:49:32;;;;;;;;;;;;;;;;;;4996478;28;20386;-62
2023/05/09 01:51:57;;;;;;;;;;;;;;;;;;5013896;28;20016;-61
2023/05/09 01:54:25;;;;;;;;;;;;;;;;;;5013832;28;19917;-61
2023/05/09 01:56:51;;;;;;;;;;;;;;;;;;4996700;28;20023;-62
2023/05/09 01:59:16;;;;;;;;;;;;;;;;;;5012680;28;19949;-62
2023/05/09 02:01:41;;;;;;;;;;;;;;;;;;4996153;28;19930;-63
2023/05/09 02:04:07;;;;;;;;;;;;;;;;;;4996208;28;19917;-63
2023/05/09 02:06:32;;;;;;;;;;;;;;;;;;5013598;28;19969;-61
2023/05/09 02:08:57;;;;;;;;;;;;;;;;;;4995802;28;20379;-63
2023/05/09 02:11:24;;;;;;;;;;;;;;;;;;4995988;28;20088;-63
2023/05/09 02:13:50;;;;;;;;;;;;;;;;;;5012494;28;20020;-61
2023/05/09 02:16:15;;;;;;;;;;;;;;;;;;4995882;28;20342;-62
2023/05/09 02:18:41;;;;;;;;;;;;;;;;;;5013832;28;19945;-63
2023/05/09 02:21:06;;;;;;;;;;;;;;;;;;4995683;28;19923;-63
2023/05/09 02:23:31;;;;;;;;;;;;;;;;;;5013583;28;20024;-63
2023/05/09 02:25:57;;;;;;;;;;;;;;;;;;4995684;28;19979;-63
2023/05/09 02:28:22;;;;;;;;;;;;;;;;;;5012493;28;19963;-63
2023/05/09 02:30:48;;;;;;;;;;;;;;;;;;5013185;28;20040;-62
2023/05/09 02:33:13;;;;;;;;;;;;;;;;;;5013240;28;19924;-62
2023/05/09 02:35:40;;;;;;;;;;;;;;;;;;5013366;28;19929;-63
2023/05/09 02:38:05;;;;;;;;;;;;;;;;;;4995666;28;20040;-62
2023/05/09 02:40:31;;;;;;;;;;;;;;;;;;5013023;28;19925;-62
2023/05/09 02:42:56;;;;;;;;;;;;;;;;;;5013321;28;20020;-63
2023/05/09 02:45:21;;;;;;;;;;;;;;;;;;4995359;28;20020;-60
2023/05/09 02:47:46;;;;;;;;;;;;;;;;;;5013154;28;19971;-63
2023/05/09 02:50:12;;;;;;;;;;;;;;;;;;4995117;28;20374;-62
2023/05/09 02:52:37;;;;;;;;;;;;;;;;;;4995145;28;19917;-63
2023/05/09 02:55:03;;;;;;;;;;;;;;;;;;4978887;28;19927;-63
2023/05/09 02:57:29;;;;;;;;;;;;;;;;;;4995302;28;20425;-63
2023/05/09 02:59:55;;;;;;;;;;;;;;;;;;4995117;28;19917;-64
2023/05/09 03:02:22;;;;;;;;;;;;;;;;;;4994716;28;19918;-62
2023/05/09 03:04:47;;;;;;;;;;;;;;;;;;5011838;28;20012;-63
2023/05/09 03:07:13;;;;;;;;;;;;;;;;;;4994679;28;20048;-62
2023/05/09 03:09:38;;;;;;;;;;;;;;;;;;5011279;28;19928;-62
2023/05/09 03:12:03;;;;;;;;;;;;;;;;;;4994742;28;19944;-63
2023/05/09 03:14:30;;;;;;;;;;;;;;;;;;4995053;28;19953;-62
2023/05/09 03:16:55;;;;;;;;;;;;;;;;;;4994730;28;19975;-63
2023/05/09 03:19:28;;;;;;;;;;;;;;;;;;4994487;28;19918;-63
2023/05/09 03:21:53;;;;;;;;;;;;;;;;;;5011753;28;19975;-63
2023/05/09 03:24:19;;;;;;;;;;;;;;;;;;4994880;28;19923;-63
2023/05/09 03:26:44;;;;;;;;;;;;;;;;;;4994675;28;19921;-62
2023/05/09 03:29:09;;;;;;;;;;;;;;;;;;4994798;28;19969;-64
2023/05/09 03:31:36;;;;;;;;;;;;;;;;;;4994648;28;19924;-63
2023/05/09 03:34:02;;;;;;;;;;;;;;;;;;4994752;28;20120;-63
2023/05/09 03:36:27;;;;;;;;;;;;;;;;;;4994398;28;19921;-63
2023/05/09 03:38:53;;;;;;;;;;;;;;;;;;4994702;28;19918;-63
2023/05/09 03:41:19;;;;;;;;;;;;;;;;;;4994511;28;19968;-64
2023/05/09 03:43:46;;;;;;;;;;;;;;;;;;4994379;28;20008;-63
2023/05/09 03:46:11;;;;;;;;;;;;;;;;;;4994434;28;20020;-63
2023/05/09 03:48:36;;;;;;;;;;;;;;;;;;4994475;28;20007;-62
2023/05/09 03:51:02;;;;;;;;;;;;;;;;;;4994454;28;20365;-63
2023/05/09 03:53:29;;;;;;;;;;;;;;;;;;4994441;28;19964;-63
2023/05/09 03:55:54;;;;;;;;;;;;;;;;;;4994230;28;19925;-63
2023/05/09 03:58:20;;;;;;;;;;;;;;;;;;4994359;28;19956;-63
2023/05/09 04:00:45;;;;;;;;;;;;;;;;;;4994203;28;19933;-63
2023/05/09 04:03:18;;;;;;;;;;;;;;;;;;5010424;28;19917;-62
2023/05/09 04:05:45;;;;;;;;;;;;;;;;;;4994457;28;20306;-63
2023/05/09 04:08:18;;;;;;;;;;;;;;;;;;4993301;28;19925;-63
2023/05/09 04:10:43;;;;;;;;;;;;;;;;;;5011767;28;20275;-63
2023/05/09 04:13:10;;;;;;;;;;;;;;;;;;4977965;28;19917;-63
2023/05/09 04:15:35;;;;;;;;;;;;;;;;;;4994200;28;19961;-63
2023/05/09 04:18:00;;;;;;;;;;;;;;;;;;4994240;28;20010;-63
2023/05/09 04:20:26;;;;;;;;;;;;;;;;;;4994015;28;19927;-63
2023/05/09 04:22:51;;;;;;;;;;;;;;;;;;4978134;28;19918;-64
2023/05/09 04:25:19;;;;;;;;;;;;;;;;;;4993978;28;20435;-63
2023/05/09 04:27:45;;;;;;;;;;;;;;;;;;4994023;28;19968;-62
2023/05/09 04:30:11;;;;;;;;;;;;;;;;;;4993167;28;20429;-63
2023/05/09 04:32:37;;;;;;;;;;;;;;;;;;5012631;28;20383;-64
2023/05/09 04:35:03;;;;;;;;;;;;;;;;;;4997640;28;20020;-63
2023/05/09 04:37:34;;;;;;;;;;;;;;;;;;4997558;28;19925;-63
2023/05/09 04:40:00;;;;;;;;;;;;;;;;;;4981453;28;19922;-63
2023/05/09 04:42:34;;;;;;;;;;;;;;;;;;4997538;28;19925;-63
2023/05/09 04:45:00;;;;;;;;;;;;;;;;;;4997621;28;20291;-62
2023/05/09 04:47:26;;;;;;;;;;;;;;;;;;4997741;28;19925;-63
2023/05/09 04:49:52;;;;;;;;;;;;;;;;;;5015102;28;19932;-63
2023/05/09 04:52:17;;;;;;;;;;;;;;;;;;5013789;28;19924;-62
2023/05/09 04:54:42;;;;;;;;;;;;;;;;;;4997278;28;19921;-63
2023/05/09 04:57:08;;;;;;;;;;;;;;;;;;4997015;28;19947;-64
2023/05/09 04:59:34;;;;;;;;;;;;;;;;;;5013470;28;20421;-64
2023/05/09 05:01:59;;;;;;;;;;;;;;;;;;4997210;28;19968;-64
2023/05/09 05:04:25;;;;;;;;;;;;;;;;;;4997400;28;20373;-63
2023/05/09 05:06:51;;;;;;;;;;;;;;;;;;4997044;28;20307;-64
2023/05/09 05:09:16;;;;;;;;;;;;;;;;;;4997240;28;19932;-64
2023/05/09 05:11:41;;;;;;;;;;;;;;;;;;4997442;28;19929;-64
2023/05/09 05:14:07;;;;;;;;;;;;;;;;;;5015021;28;20310;-64
2023/05/09 05:16:32;;;;;;;;;;;;;;;;;;4996986;28;20350;-64
2023/05/09 05:18:58;;;;;;;;;;;;;;;;;;4997144;28;19913;-64
2023/05/09 05:21:23;;;;;;;;;;;;;;;;;;4980091;28;20338;-64
2023/05/09 05:23:49;;;;;;;;;;;;;;;;;;5014850;28;19917;-64
2023/05/09 05:26:14;;;;;;;;;;;;;;;;;;4996755;28;19921;-65
2023/05/09 05:28:40;;;;;;;;;;;;;;;;;;5014661;28;19926;-62
2023/05/09 05:31:05;;;;;;;;;;;;;;;;;;4980412;28;19976;-64
2023/05/09 05:33:31;;;;;;;;;;;;;;;;;;4996745;28;19944;-63
2023/05/09 05:35:56;;;;;;;;;;;;;;;;;;4980346;28;19922;-63
2023/05/09 05:38:22;;;;;;;;;;;;;;;;;;4993367;28;20044;-62
2023/05/09 05:40:50;;;;;;;;;;;;;;;;;;4945355;28;19928;-64
2023/05/09 05:43:16;;;;;;;;;;;;;;;;;;5008558;28;20290;-64
2023/05/09 05:45:41;;;;;;;;;;;;;;;;;;4996432;28;19925;-63
2023/05/09 05:48:10;;;;;;;;;;;;;;;;;;4996396;28;20000;-64
2023/05/09 05:50:35;;;;;;;;;;;;;;;;;;4994826;28;20472;-64
2023/05/09 05:53:01;;;;;;;;;;;;;;;;;;5007787;28;19979;-63
2023/05/09 05:55:26;;;;;;;;;;;;;;;;;;4978528;28;20458;-64
2023/05/09 05:57:52;;;;;;;;;;;;;;;;;;4975894;28;19922;-64
2023/05/09 06:00:17;;;;;;;;;;;;;;;;;;4994251;28;19976;-63
2023/05/09 06:02:47;;;;;;;;;;;;;;;;;;4995278;28;19941;-64
2023/05/09 06:05:19;;;;;;;;;;;;;;;;;;4996070;28;19925;-63
2023/05/09 06:07:44;;;;;;;;;;;;;;;;;;5011175;28;19931;-62
2023/05/09 06:10:10;;;;;;;;;;;;;;;;;;5011842;28;19922;-63
2023/05/09 06:12:35;;;;;;;;;;;;;;;;;;5012684;28;19917;-63
2023/05/09 06:15:01;;;;;;;;;;;;;;;;;;4994924;28;19922;-64
2023/05/09 06:17:26;;;;;;;;;;;;;;;;;;5011392;28;20286;-64
2023/05/09 06:19:51;;;;;;;;;;;;;;;;;;5012483;28;20036;-65
2023/05/09 06:22:17;;;;;;;;;;;;;;;;;;4994414;28;19949;-64
2023/05/09 06:24:42;;;;;;;;;;;;;;;;;;4995170;28;19922;-64
2023/05/09 06:27:07;;;;;;;;;;;;;;;;;;4992109;28;19917;-62
2023/05/09 06:29:33;;;;;;;;;;;;;;;;;;4983183;28;19922;-64
2023/05/09 06:31:59;;;;;;;;;;;;;;;;;;4993586;28;19918;-64
2023/05/09 06:34:24;;;;;;;;;;;;;;;;;;5012803;28;19917;-64
2023/05/09 06:36:50;;;;;;;;;;;;;;;;;;5012883;28;19930;-62
2023/05/09 06:39:15;;;;;;;;;;;;;;;;;;5013466;28;19924;-65
2023/05/09 06:41:40;;;;;;;;;;;;;;;;;;4995409;28;20322;-62
2023/05/09 06:44:06;;;;;;;;;;;;;;;;;;5013506;28;20286;-63
2023/05/09 06:46:33;;;;;;;;;;;;;;;;;;5011931;28;21414;-63
2023/05/09 06:49:00;;;;;;;;;;;;;;;;;;5013273;28;19925;-64
2023/05/09 06:51:26;;;;;;;;;;;;;;;;;;5021848;28;20436;-63
2023/05/09 06:53:51;;;;;;;;;;;;;;;;;;5020604;28;19922;-64
2023/05/09 06:56:18;;;;;;;;;;;;;;;;;;5010181;28;19921;-64
2023/05/09 06:58:44;;;;;;;;;;;;;;;;;;5012361;28;19972;-65
2023/05/09 07:01:09;;;;;;;;;;;;;;;;;;5011734;28;19925;-63
2023/05/09 07:03:34;;;;;;;;;;;;;;;;;;4994390;28;20371;-65
2023/05/09 07:06:00;;;;;;;;;;;;;;;;;;4994367;28;19921;-64
2023/05/09 07:08:29;;;;;;;;;;;;;;;;;;4982984;28;19965;-63
2023/05/09 07:10:54;;;;;;;;;;;;;;;;;;5011728;28;20322;-64
2023/05/09 07:13:20;;;;;;;;;;;;;;;;;;4991740;28;19917;-63
2023/05/09 07:15:45;;;;;;;;;;;;;;;;;;5006421;28;19922;-62
2023/05/09 07:18:11;;;;;;;;;;;;;;;;;;4993183;28;19918;-63
2023/05/09 07:20:37;;;;;;;;;;;;;;;;;;4989058;28;20059;-63
2023/05/09 07:23:02;;;;;;;;;;;;;;;;;;4994766;28;20015;-63
2023/05/09 07:25:28;;;;;;;;;;;;;;;;;;4993764;28;20340;-64
2023/05/09 07:27:53;;;;;;;;;;;;;;;;;;4964655;28;19926;-63
2023/05/09 07:30:18;;;;;;;;;;;;;;;;;;5010191;28;20400;-63
2023/05/09 07:32:44;;;;;;;;;;;;;;;;;;5011352;28;20292;-62
2023/05/09 07:35:09;;;;;;;;;;;;;;;;;;5011018;28;19921;-61
2023/05/09 07:37:35;;;;;;;;;;;;;;;;;;5010703;28;19960;-63
2023/05/09 07:40:02;;;;;;;;;;;;;;;;;;4991798;28;20076;-61
2023/05/09 07:42:29;;;;;;;;;;;;;;;;;;4992349;28;20375;-64
2023/05/09 07:44:55;;;;;;;;;;;;;;;;;;5000868;28;19968;-63
2023/05/09 07:47:20;;;;;;;;;;;;;;;;;;4976561;28;20003;-64
2023/05/09 07:49:46;;;;;;;;;;;;;;;;;;4993632;28;19922;-64
2023/05/09 07:52:12;;;;;;;;;;;;;;;;;;5010466;28;19957;-64
2023/05/09 07:54:37;;;;;;;;;;;;;;;;;;5011120;28;19968;-62
2023/05/09 07:57:02;;;;;;;;;;;;;;;;;;5009740;28;20429;-63
2023/05/09 07:59:28;;;;;;;;;;;;;;;;;;4992935;28;19917;-62
2023/05/09 08:01:53;;;;;;;;;;;;;;;;;;4993274;28;20338;-62
2023/05/09 08:04:19;;;;;;;;;;;;;;;;;;4992199;28;19928;-61
2023/05/09 08:06:44;;;;;;;;;;;;;;;;;;4993946;28;20306;-63
2023/05/09 08:09:09;;;;;;;;;;;;;;;;;;5014174;28;19948;-63
2023/05/09 08:11:35;;;;;;;;;;;;;;;;;;5014549;28;19928;-64
2023/05/09 08:14:00;;;;;;;;;;;;;;;;;;4972155;28;19924;-65
2023/05/09 08:16:28;;;;;;;;;;;;;;;;;;4998078;28;20556;-65
2023/05/09 08:18:53;;;;;;;;;;;;;;;;;;5014009;28;20012;-65
2023/05/09 08:21:19;;;;;;;;;;;;;;;;;;5015718;28;19930;-63
2023/05/09 08:23:45;;;;;;;;;;;;;;;;;;4977090;28;19921;-67
2023/05/09 08:26:11;;;;;;;;;;;;;;;;;;4996873;28;20016;-65
2023/05/09 08:28:39;;;;;;;;;;;;;;;;;;4978754;28;20003;-65
2023/05/09 08:31:05;;;;;;;;;;;;;;;;;;4994090;28;19965;-65
2023/05/09 08:33:30;;;;;;;;;;;;;;;;;;5004811;28;19917;-64
2023/05/09 08:35:59;;;;;;;;;;;;;;;;;;5003613;28;19928;-65
2023/05/09 08:38:24;;;;;;;;;;;;;;;;;;4962814;28;19961;-64
2023/05/09 08:40:50;;;;;;;;;;;;;;;;;;4966360;28;19926;-67
2023/05/09 08:43:18;;;;;;;;;;;;;;;;;;4963288;28;20335;-68
2023/05/09 08:45:44;;;;;;;;;;;;;;;;;;4966003;28;20009;-68
2023/05/09 08:48:09;;;;;;;;;;;;;;;;;;4965972;28;20048;-68
2023/05/09 08:50:35;;;;;;;;;;;;;;;;;;4964399;28;20007;-68
2023/05/09 08:53:01;;;;;;;;;;;;;;;;;;4964780;28;20283;-70
2023/05/09 08:57:55;;;;;;;;;;;;;;;;;;4982118;28;19977;-67
2023/05/09 09:00:24;;;;;;;;;;;;;;;;;;4968576;28;19922;-70
2023/05/09 09:03:34;;;;;;;;;;;;;;;;;;4977430;28;19964;-68
2023/05/09 09:06:03;;;;;;;;;;;;;;;;;;4966818;28;19914;-69
2023/05/09 09:09:27;;;;;;;;;;;;;;;;;;4968076;28;19925;-65
2023/05/09 09:12:08;;;;;;;;;;;;;;;;;;4930341;28;19928;-64
2023/05/09 09:14:33;;;;;;;;;;;;;;;;;;4954881;28;19918;-66
2023/05/09 09:16:59;;;;;;;;;;;;;;;;;;4969538;28;19921;-66
2023/05/09 09:19:24;;;;;;;;;;;;;;;;;;4970840;28;19937;-65
2023/05/09 09:21:52;;;;;;;;;;;;;;;;;;4971065;28;19921;-64
2023/05/09 09:24:18;;;;;;;;;;;;;;;;;;4988843;28;19917;-65
2023/05/09 09:26:43;;;;;;;;;;;;;;;;;;4988860;28;20040;-65
2023/05/09 09:29:11;;;;;;;;;;;;;;;;;;4988258;28;20377;-64
2023/05/09 09:31:39;;;;;;;;;;;;;;;;;;4972041;28;19921;-63
2023/05/09 09:34:05;;;;;;;;;;;;;;;;;;4989132;28;19918;-64
2023/05/09 09:36:35;;;;;;;;;;;;;;;;;;4987752;28;19976;-64
2023/05/09 09:39:00;;;;;;;;;;;;;;;;;;4970278;28;20054;-63
2023/05/09 09:41:26;;;;;;;;;;;;;;;;;;4988462;28;19921;-64
2023/05/09 09:43:51;;;;;;;;;;;;;;;;;;4970671;28;19968;-64
2023/05/09 09:46:18;;;;;;;;;;;;;;;;;;4988338;28;20388;-71
2023/05/09 09:48:49;;;;;;;;;;;;;;;;;;4969468;28;20017;-69
2023/05/09 09:51:17;;;;;;;;;;;;;;;;;;4986507;28;19921;-65
2023/05/09 09:53:42;;;;;;;;;;;;;;;;;;4969887;28;20445;-64
2023/05/09 09:56:08;;;;;;;;;;;;;;;;;;4969946;28;19968;-62
2023/05/09 09:58:33;;;;;;;;;;;;;;;;;;4949522;28;19949;-63
2023/05/09 10:00:58;;;;;;;;;;;;;;;;;;4949882;28;20825;-63
2023/05/09 10:03:24;;;;;;;;;;;;;;;;;;4949309;29;20001;-65
2023/05/09 10:05:49;;;;;;;;;;;;;;;;;;4948478;29;19933;-65
2023/05/09 10:08:14;;;;;;;;;;;;;;;;;;4949814;29;19926;-64
2023/05/09 10:10:40;;;;;;;;;;;;;;;;;;4948829;28;20478;-63
2023/05/09 10:13:08;;;;;;;;;;;;;;;;;;4950271;28;19918;-62
2023/05/09 10:15:34;;;;;;;;;;;;;;;;;;4931151;29;20382;-64
2023/05/09 10:18:20;;;;;;;;;;;;;;;;;;4949280;28;19985;-61
2023/05/09 10:21:00;;;;;;;;;;;;;;;;;;4948660;29;19926;-62
2023/05/09 10:23:34;;;;;;;;;;;;;;;;;;4949420;28;20497;-61
2023/05/09 10:26:05;;;;;;;;;;;;;;;;;;4950548;29;19922;-63
2023/05/09 10:28:33;;;;;;;;;;;;;;;;;;4951478;28;20316;-62
2023/05/09 10:31:05;;;;;;;;;;;;;;;;;;4929417;29;20612;-64
2023/05/09 10:33:32;;;;;;;;;;;;;;;;;;4947442;29;20380;-66
2023/05/09 10:35:57;;;;;;;;;;;;;;;;;;4950690;29;20009;-64
2023/05/09 10:38:23;;;;;;;;;;;;;;;;;;4950283;29;19918;-67
2023/05/09 10:40:48;;;;;;;;;;;;;;;;;;4949696;29;20024;-68
2023/05/09 10:43:14;;;;;;;;;;;;;;;;;;4933114;29;19950;-64
2023/05/09 10:45:39;;;;;;;;;;;;;;;;;;4949846;28;19931;-69
2023/05/09 10:48:05;;;;;;;;;;;;;;;;;;4946009;28;20403;-64
2023/05/09 10:50:43;;;;;;;;;;;;;;;;;;4948398;28;19922;-66
2023/05/09 10:53:14;;;;;;;;;;;;;;;;;;4947803;29;20025;-64
2023/05/09 10:55:39;;;;;;;;;;;;;;;;;;4949207;28;19926;-65
2023/05/09 10:58:04;;;;;;;;;;;;;;;;;;4973400;28;19925;-62
2023/05/09 11:00:30;;;;;;;;;;;;;;;;;;4987373;28;19922;-62
2023/05/09 11:02:55;;;;;;;;;;;;;;;;;;4987739;28;20297;-63
2023/05/09 11:05:20;;;;;;;;;;;;;;;;;;4986256;28;20362;-63
2023/05/09 11:07:46;;;;;;;;;;;;;;;;;;4987675;28;19933;-64
2023/05/09 11:10:11;;;;;;;;;;;;;;;;;;4987291;28;20011;-63
2023/05/09 11:12:37;;;;;;;;;;;;;;;;;;4986140;28;19968;-64
2023/05/09 11:15:02;;;;;;;;;;;;;;;;;;4987079;28;19917;-64
2023/05/09 11:17:28;;;;;;;;;;;;;;;;;;4988381;28;20085;-63
2023/05/09 11:19:54;;;;;;;;;;;;;;;;;;4988886;28;20418;-63
2023/05/09 11:22:19;;;;;;;;;;;;;;;;;;4971145;28;20402;-63
2023/05/09 11:24:45;;;;;;;;;;;;;;;;;;4987707;28;19921;-63
2023/05/09 11:27:11;;;;;;;;;;;;;;;;;;4988452;28;20350;-63
2023/05/09 11:29:36;;;;;;;;;;;;;;;;;;4971372;28;19924;-64
2023/05/09 11:32:01;;;;;;;;;;;;;;;;;;4971614;28;19932;-64
2023/05/09 11:34:26;;;;;;;;;;;;;;;;;;4970245;28;19924;-66
2023/05/09 11:36:52;;;;;;;;;;;;;;;;;;4990340;28;19929;-68
2023/05/09 11:39:17;;;;;;;;;;;;;;;;;;4955655;28;19933;-64
2023/05/09 11:41:42;;;;;;;;;;;;;;;;;;4988578;28;19922;-65
2023/05/09 11:44:08;;;;;;;;;;;;;;;;;;4989084;28;19922;-66
2023/05/09 11:46:33;;;;;;;;;;;;;;;;;;4988445;28;19984;-66
2023/05/09 11:48:58;;;;;;;;;;;;;;;;;;4973257;28;19973;-66
2023/05/09 11:51:24;;;;;;;;;;;;;;;;;;4973871;28;19925;-65
2023/05/09 11:53:49;;;;;;;;;;;;;;;;;;4989869;28;19924;-64
2023/05/09 11:56:14;;;;;;;;;;;;;;;;;;4969375;28;20068;-65
2023/05/09 11:58:41;;;;;;;;;;;;;;;;;;4987187;28;19925;-65
2023/05/09 12:01:06;;;;;;;;;;;;;;;;;;4986570;28;19929;-65
2023/05/09 12:03:32;;;;;;;;;;;;;;;;;;4972550;28;19917;-66
2023/05/09 12:05:57;;;;;;;;;;;;;;;;;;4971812;28;19922;-63
2023/05/09 12:08:23;;;;;;;;;;;;;;;;;;4989977;28;20059;-66
2023/05/09 12:10:48;;;;;;;;;;;;;;;;;;4991674;28;19933;-66
2023/05/09 12:13:14;;;;;;;;;;;;;;;;;;4989871;28;19948;-64
2023/05/09 12:15:40;;;;;;;;;;;;;;;;;;4990225;28;19921;-67
2023/05/09 12:18:05;;;;;;;;;;;;;;;;;;4969955;28;19963;-66
2023/05/09 12:20:30;;;;;;;;;;;;;;;;;;4989296;28;19922;-67
2023/05/09 12:22:55;;;;;;;;;;;;;;;;;;4973090;28;19918;-67
2023/05/09 12:25:21;;;;;;;;;;;;;;;;;;4972509;28;19918;-66
2023/05/09 12:27:46;;;;;;;;;;;;;;;;;;4990594;28;19933;-66
2023/05/09 12:30:14;;;;;;;;;;;;;;;;;;4972275;28;19984;-65
2023/05/09 12:32:41;;;;;;;;;;;;;;;;;;4990801;28;19925;-67
2023/05/09 12:35:07;;;;;;;;;;;;;;;;;;4990499;28;20433;-65
2023/05/09 12:37:32;;;;;;;;;;;;;;;;;;4954872;28;19917;-66
2023/05/09 12:39:57;;;;;;;;;;;;;;;;;;4972431;28;19925;-65
2023/05/09 12:42:23;;;;;;;;;;;;;;;;;;4990166;28;20419;-65
2023/05/09 12:44:48;;;;;;;;;;;;;;;;;;4987635;28;19929;-66
2023/05/09 12:47:14;;;;;;;;;;;;;;;;;;4982584;28;19922;-64
2023/05/09 12:49:39;;;;;;;;;;;;;;;;;;4933751;28;19918;-64
2023/05/09 12:52:05;;;;;;;;;;;;;;;;;;4969926;28;20028;-66
2023/05/09 12:54:30;;;;;;;;;;;;;;;;;;4976625;28;20384;-64
2023/05/09 12:56:56;;;;;;;;;;;;;;;;;;4992876;28;19976;-64
2023/05/09 12:59:21;;;;;;;;;;;;;;;;;;4991818;28;19917;-67
2023/05/09 13:01:46;;;;;;;;;;;;;;;;;;4992241;28;20299;-65
2023/05/09 13:04:12;;;;;;;;;;;;;;;;;;4992623;28;19960;-65
2023/05/09 13:06:37;;;;;;;;;;;;;;;;;;4975853;28;20600;-66
2023/05/09 13:09:04;;;;;;;;;;;;;;;;;;4991502;28;19925;-68
2023/05/09 13:11:30;;;;;;;;;;;;;;;;;;4993199;28;20384;-67
2023/05/09 13:13:55;;;;;;;;;;;;;;;;;;4974980;28;19967;-65
2023/05/09 13:16:21;;;;;;;;;;;;;;;;;;4973808;28;19922;-63
2023/05/09 13:18:46;;;;;;;;;;;;;;;;;;4974776;28;19924;-64
2023/05/09 13:21:11;;;;;;;;;;;;;;;;;;4992836;28;20012;-63
2023/05/09 13:23:37;;;;;;;;;;;;;;;;;;4993308;28;19918;-63
2023/05/09 13:26:02;;;;;;;;;;;;;;;;;;4992294;28;19969;-62
2023/05/09 13:28:27;;;;;;;;;;;;;;;;;;4993452;28;19925;-62
2023/05/09 13:30:53;;;;;;;;;;;;;;;;;;4992993;28;19922;-63
2023/05/09 13:33:18;;;;;;;;;;;;;;;;;;4992929;28;20016;-63
2023/05/09 13:35:43;;;;;;;;;;;;;;;;;;4993169;28;20307;-63
2023/05/09 13:38:09;;;;;;;;;;;;;;;;;;4992739;28;19926;-63
2023/05/09 13:40:34;;;;;;;;;;;;;;;;;;4992895;28;20291;-61
2023/05/09 13:42:59;;;;;;;;;;;;;;;;;;4993078;28;19917;-62
2023/05/09 13:45:25;;;;;;;;;;;;;;;;;;4992482;28;19926;-63
2023/05/09 13:47:50;;;;;;;;;;;;;;;;;;4992367;28;19925;-64
2023/05/09 13:50:15;;;;;;;;;;;;;;;;;;4974140;28;19976;-63
2023/05/09 13:52:41;;;;;;;;;;;;;;;;;;4992109;28;19979;-65
2023/05/09 13:55:06;;;;;;;;;;;;;;;;;;4953991;28;19925;-63
2023/05/09 13:57:31;;;;;;;;;;;;;;;;;;4985701;28;19926;-63
2023/05/09 13:59:57;;;;;;;;;;;;;;;;;;4991104;28;20396;-63
2023/05/09 14:02:23;;;;;;;;;;;;;;;;;;4972228;28;19914;-63
2023/05/09 14:04:48;;;;;;;;;;;;;;;;;;4972795;28;19929;-62
2023/05/09 14:07:15;;;;;;;;;;;;;;;;;;4992325;28;19945;-62
2023/05/09 14:09:41;;;;;;;;;;;;;;;;;;4991968;28;19933;-64
2023/05/09 14:12:06;;;;;;;;;;;;;;;;;;4990544;28;19922;-62
2023/05/09 14:14:32;;;;;;;;;;;;;;;;;;4973345;28;19976;-64
2023/05/09 14:16:58;;;;;;;;;;;;;;;;;;4957479;28;20033;-62
2023/05/09 14:19:23;;;;;;;;;;;;;;;;;;4990596;28;20391;-61
2023/05/09 14:21:48;;;;;;;;;;;;;;;;;;4992180;28;19957;-62
2023/05/09 14:24:14;;;;;;;;;;;;;;;;;;4991617;28;20446;-63
2023/05/09 14:26:39;;;;;;;;;;;;;;;;;;4996810;28;20306;-64
2023/05/09 14:29:04;;;;;;;;;;;;;;;;;;4993313;28;19972;-63
2023/05/09 14:31:30;;;;;;;;;;;;;;;;;;4992390;28;20346;-63
2023/05/09 14:33:55;;;;;;;;;;;;;;;;;;4991552;28;19917;-64
2023/05/09 14:36:21;;;;;;;;;;;;;;;;;;4990120;28;20339;-63
2023/05/09 14:38:46;;;;;;;;;;;;;;;;;;4991203;28;19918;-62
2023/05/09 14:41:11;;;;;;;;;;;;;;;;;;4991774;28;20339;-62
2023/05/09 14:43:37;;;;;;;;;;;;;;;;;;4992159;28;19917;-63
2023/05/09 14:46:02;;;;;;;;;;;;;;;;;;4991478;28;19922;-63
2023/05/09 14:48:28;;;;;;;;;;;;;;;;;;4992092;28;19933;-65
2023/05/09 14:50:55;;;;;;;;;;;;;;;;;;4992043;28;19922;-64
2023/05/09 14:53:21;;;;;;;;;;;;;;;;;;4991328;28;19918;-63
2023/05/09 14:55:46;;;;;;;;;;;;;;;;;;4991608;28;20136;-69
2023/05/09 14:58:12;;;;;;;;;;;;;;;;;;4932659;28;19926;-72
2023/05/09 15:00:38;;;;;;;;;;;;;;;;;;4942574;28;20376;-65
2023/05/09 15:03:03;;;;;;;;;;;;;;;;;;4952947;28;19918;-64
2023/05/09 15:05:28;;;;;;;;;;;;;;;;;;4952533;28;19993;-62
2023/05/09 15:07:54;;;;;;;;;;;;;;;;;;4953152;28;20004;-63
2023/05/09 15:10:19;;;;;;;;;;;;;;;;;;4951136;29;19918;-62
2023/05/09 15:12:45;;;;;;;;;;;;;;;;;;4953012;28;20502;-63
2023/05/09 15:15:11;;;;;;;;;;;;;;;;;;4951658;28;20303;-60
2023/05/09 15:17:36;;;;;;;;;;;;;;;;;;4953409;28;19985;-62
2023/05/09 15:20:01;;;;;;;;;;;;;;;;;;4952867;29;19957;-62
2023/05/09 15:22:32;;;;;;;;;;;;;;;;;;4952050;29;20680;-63
2023/05/09 15:24:57;;;;;;;;;;;;;;;;;;4953003;28;19918;-62
2023/05/09 15:27:23;;;;;;;;;;;;;;;;;;4952402;28;20471;-63
2023/05/09 15:29:48;;;;;;;;;;;;;;;;;;4951298;29;20077;-62
2023/05/09 15:32:13;;;;;;;;;;;;;;;;;;4953168;28;20017;-62
2023/05/09 15:34:39;;;;;;;;;;;;;;;;;;4953295;29;20029;-61
2023/05/09 15:37:04;;;;;;;;;;;;;;;;;;4952345;29;19965;-63
2023/05/09 15:39:30;;;;;;;;;;;;;;;;;;4951645;29;20388;-63
2023/05/09 15:41:55;;;;;;;;;;;;;;;;;;4952724;29;20483;-63
2023/05/09 15:44:21;;;;;;;;;;;;;;;;;;4953596;28;19919;-64
2023/05/09 15:46:47;;;;;;;;;;;;;;;;;;4968447;28;20296;-65
2023/05/09 15:49:12;;;;;;;;;;;;;;;;;;4953629;28;20380;-64
2023/05/09 15:51:37;;;;;;;;;;;;;;;;;;4953827;29;19923;-63
2023/05/09 15:54:03;;;;;;;;;;;;;;;;;;4954019;29;20374;-63
2023/05/09 15:56:28;;;;;;;;;;;;;;;;;;4952530;29;20587;-62
2023/05/09 15:58:53;;;;;;;;;;;;;;;;;;4977260;28;20436;-63
2023/05/09 16:01:19;;;;;;;;;;;;;;;;;;4992481;28;19926;-64
2023/05/09 16:03:44;;;;;;;;;;;;;;;;;;4992598;28;19925;-64
2023/05/09 16:06:11;;;;;;;;;;;;;;;;;;4992339;28;19960;-65
2023/05/09 16:08:36;;;;;;;;;;;;;;;;;;4974731;28;19969;-64
2023/05/09 16:11:03;;;;;;;;;;;;;;;;;;4992415;28;20303;-64
2023/05/09 16:13:29;;;;;;;;;;;;;;;;;;4992246;28;19918;-63
2023/05/09 16:15:55;;;;;;;;;;;;;;;;;;4974461;28;20405;-62
2023/05/09 16:18:20;;;;;;;;;;;;;;;;;;4992116;28;19917;-64
2023/05/09 16:20:45;;;;;;;;;;;;;;;;;;4974480;28;19918;-64
2023/05/09 16:23:11;;;;;;;;;;;;;;;;;;4975029;28;19932;-63
2023/05/09 16:25:37;;;;;;;;;;;;;;;;;;4991938;28;20021;-65
2023/05/09 16:28:02;;;;;;;;;;;;;;;;;;4977781;28;20280;-62
2023/05/09 16:30:29;;;;;;;;;;;;;;;;;;4995893;28;20290;-63
2023/05/09 16:32:55;;;;;;;;;;;;;;;;;;4978063;28;20012;-63
2023/05/09 16:35:20;;;;;;;;;;;;;;;;;;4995573;28;19968;-62
2023/05/09 16:37:46;;;;;;;;;;;;;;;;;;4995659;28;19918;-62
2023/05/09 16:40:11;;;;;;;;;;;;;;;;;;4995837;28;19961;-63